Time,TemperatureF,DewpointF,PressureIn,WindDirection,WindDirectionDegrees,WindSpeedMPH,WindSpeedGustMPH,Humidity,HourlyPrecipIn,Conditions,Clouds,dailyrainin,SoftwareType,DateUTC
2013-05-12 00:04:00,74.0,38.8,29.87,SSE,168,0.0,3.0,28,0.00,CLR,,0.00,WeatherDisplay:10.37,2013-05-12 07:04:00,
2013-05-12 00:09:00,73.7,38.6,29.87,SSE,168,1.0,3.0,28,0.00,CLR,,0.00,WeatherDisplay:10.37,2013-05-12 07:09:00,
2013-05-12 00:19:00,73.7,37.6,29.86,SSE,168,1.0,4.0,27,0.00,CLR,,0.00,WeatherDisplay:10.37,2013-05-12 07:19:00,
2013-05-12 00:29:00,72.7,37.7,29.87,SSE,168,2.0,3.0,28,0.00,CLR,,0.00,WeatherDisplay:10.37,2013-05-12 07:29:00,
2013-05-12 00:39:00,71.5,37.6,29.88,SSE,168,2.0,3.0,29,0.00,CLR,,0.00,WeatherDisplay:10.37,2013-05-12 07:39:00,
2013-05-12 00:49:00,71.0,38.0,29.88,SSE,168,2.0,3.0,30,0.00,CLR,,0.00,WeatherDisplay:10.37,2013-05-12 07:49:00,
2013-05-12 00:59:00,70.3,38.3,29.88,SSE,168,1.0,3.0,31,0.00,CLR,,0.00,WeatherDisplay:10.37,2013-05-12 07:59:00,
2013-05-12 01:04:00,70.2,38.1,29.88,SSE,168,0.0,2.0,31,0.00,CLR,,0.00,WeatherDisplay:10.37,2013-05-12 08:04:00,
2013-05-12 01:09:00,69.9,37.9,29.88,SSE,168,1.0,2.0,31,0.00,CLR,,0.00,WeatherDisplay:10.37,2013-05-12 08:09:00,
2013-05-12 01:19:00,69.1,38.0,29.89,SSE,168,1.0,2.0,32,0.00,CLR,,0.00,WeatherDisplay:10.37,2013-05-12 08:19:00,
2013-05-12 01:29:00,68.5,39.0,29.88,SSE,168,1.0,3.0,34,0.00,CLR,,0.00,WeatherDisplay:10.37,2013-05-12 08:29:00,
2013-05-12 01:39:00,68.4,38.2,29.88,SSE,168,0.0,0.0,33,0.00,CLR,,0.00,WeatherDisplay:10.37,2013-05-12 08:39:00,
2013-05-12 01:49:00,68.6,38.3,29.88,SSE,168,0.0,0.0,33,0.00,CLR,,0.00,WeatherDisplay:10.37,2013-05-12 08:49:00,
2013-05-12 01:59:00,67.8,38.4,29.87,SSE,168,0.0,0.0,34,0.00,CLR,,0.00,WeatherDisplay:10.37,2013-05-12 08:59:00,
2013-05-12 02:04:00,67.4,38.8,29.87,SSE,168,0.0,0.0,35,0.00,CLR,,0.00,WeatherDisplay:10.37,2013-05-12 09:04:00,
2013-05-12 02:09:00,67.3,39.4,29.87,SSE,168,0.0,1.0,36,0.00,CLR,,0.00,WeatherDisplay:10.37,2013-05-12 09:09:00,
2013-05-12 02:19:00,67.8,39.9,29.87,SSE,168,1.0,3.0,36,0.00,CLR,,0.00,WeatherDisplay:10.37,2013-05-12 09:19:00,
2013-05-12 02:29:00,69.2,39.6,29.87,SSE,168,2.0,5.0,34,0.00,CLR,,0.00,WeatherDisplay:10.37,2013-05-12 09:29:00,
2013-05-12 02:39:00,69.9,39.5,29.87,SSE,168,2.0,4.0,33,0.00,CLR,,0.00,WeatherDisplay:10.37,2013-05-12 09:39:00,
2013-05-12 02:49:00,69.8,39.4,29.86,SSE,168,1.0,4.0,33,0.00,CLR,,0.00,WeatherDisplay:10.37,2013-05-12 09:49:00,
2013-05-12 02:59:00,69.3,38.9,29.86,SSE,168,0.0,0.0,33,0.00,CLR,,0.00,WeatherDisplay:10.37,2013-05-12 09:59:00,
2013-05-12 03:04:00,68.8,40.0,29.86,SSE,168,0.0,0.0,35,0.00,CLR,,0.00,WeatherDisplay:10.37,2013-05-12 10:04:00,
2013-05-12 03:09:00,68.4,39.7,29.87,SSE,168,0.0,0.0,35,0.00,CLR,,0.00,WeatherDisplay:10.37,2013-05-12 10:09:00,
2013-05-12 03:19:00,68.1,39.4,29.87,SSE,168,0.0,0.0,35,0.00,CLR,,0.00,WeatherDisplay:10.37,2013-05-12 10:19:00,
2013-05-12 03:29:00,66.9,39.0,29.87,SSE,168,0.0,0.0,36,0.00,CLR,,0.00,WeatherDisplay:10.37,2013-05-12 10:29:00,
2013-05-12 03:39:00,65.2,40.3,29.87,SSE,168,0.0,2.0,40,0.00,CLR,,0.00,WeatherDisplay:10.37,2013-05-12 10:39:00,
2013-05-12 03:49:00,64.8,39.2,29.87,SSE,168,0.0,0.0,39,0.00,CLR,,0.00,WeatherDisplay:10.37,2013-05-12 10:49:00,
2013-05-12 03:59:00,64.2,39.4,29.87,SSE,168,0.0,2.0,40,0.00,CLR,,0.00,WeatherDisplay:10.37,2013-05-12 10:59:00,
2013-05-12 04:04:00,64.3,39.4,29.87,SSE,168,1.0,2.0,40,0.00,CLR,,0.00,WeatherDisplay:10.37,2013-05-12 11:04:00,
2013-05-12 04:09:00,64.3,39.4,29.87,SSE,168,0.0,1.0,40,0.00,CLR,,0.00,WeatherDisplay:10.37,2013-05-12 11:09:00,
2013-05-12 04:19:00,63.7,39.5,29.87,SSE,168,0.0,0.0,41,0.00,CLR,,0.00,WeatherDisplay:10.37,2013-05-12 11:19:00,
2013-05-12 04:29:00,63.1,38.4,29.88,SSE,168,0.0,0.0,40,0.00,CLR,,0.00,WeatherDisplay:10.37,2013-05-12 11:29:00,
2013-05-12 04:39:00,62.7,38.0,29.88,SSE,168,0.0,0.0,40,0.00,CLR,,0.00,WeatherDisplay:10.37,2013-05-12 11:39:00,
2013-05-12 04:49:00,62.3,37.7,29.88,SSE,168,0.0,0.0,40,0.00,CLR,,0.00,WeatherDisplay:10.37,2013-05-12 11:49:00,
2013-05-12 04:59:00,62.1,38.1,29.88,SSE,168,0.0,3.0,41,0.00,CLR,,0.00,WeatherDisplay:10.37,2013-05-12 11:59:00,
2013-05-12 05:04:00,62.0,38.0,29.88,SSE,168,0.0,0.0,41,0.00,CLR,,0.00,WeatherDisplay:10.37,2013-05-12 12:04:00,
2013-05-12 05:09:00,62.0,38.7,29.88,SSE,168,0.0,0.0,42,0.00,CLR,,0.00,WeatherDisplay:10.37,2013-05-12 12:09:00,
2013-05-12 05:19:00,61.5,39.4,29.88,SSE,168,0.0,0.0,44,0.00,CLR,,0.00,WeatherDisplay:10.37,2013-05-12 12:19:00,
2013-05-12 05:29:00,61.1,38.4,29.89,SSE,168,0.0,0.0,43,0.00,CLR,,0.00,WeatherDisplay:10.37,2013-05-12 12:29:00,
2013-05-12 05:39:00,60.9,38.8,29.89,SSE,168,0.0,0.0,44,0.00,CLR,,0.00,WeatherDisplay:10.37,2013-05-12 12:39:00,
2013-05-12 05:49:00,60.8,38.2,29.90,SSE,168,0.0,0.0,43,0.00,CLR,,0.00,WeatherDisplay:10.37,2013-05-12 12:49:00,
2013-05-12 05:59:00,61.1,37.8,29.90,SSE,168,2.0,2.0,42,0.00,CLR,,0.00,WeatherDisplay:10.37,2013-05-12 12:59:00,
2013-05-12 06:04:00,61.6,38.3,29.90,SSE,168,1.0,2.0,42,0.00,CLR,,0.00,WeatherDisplay:10.37,2013-05-12 13:04:00,
2013-05-12 06:09:00,61.8,38.4,29.90,SSE,168,0.0,0.0,42,0.00,CLR,,0.00,WeatherDisplay:10.37,2013-05-12 13:09:00,
2013-05-12 06:19:00,62.0,39.2,29.91,SSE,168,0.0,1.0,43,0.00,CLR,,0.00,WeatherDisplay:10.37,2013-05-12 13:19:00,
2013-05-12 06:29:00,62.1,38.7,29.92,SSE,168,0.0,0.0,42,0.00,CLR,,0.00,WeatherDisplay:10.37,2013-05-12 13:29:00,
2013-05-12 06:39:00,62.8,38.7,29.92,SSE,168,0.0,0.0,41,0.00,CLR,,0.00,WeatherDisplay:10.37,2013-05-12 13:39:00,
2013-05-12 06:49:00,64.4,38.9,29.91,SSE,168,0.0,0.0,39,0.00,CLR,,0.00,WeatherDisplay:10.37,2013-05-12 13:49:00,
2013-05-12 06:59:00,65.9,38.9,29.91,SSE,168,0.0,0.0,37,0.00,CLR,,0.00,WeatherDisplay:10.37,2013-05-12 13:59:00,
2013-05-12 07:04:00,66.8,39.7,29.91,SSE,168,0.0,0.0,37,0.00,CLR,,0.00,WeatherDisplay:10.37,2013-05-12 14:04:00,
2013-05-12 07:09:00,68.1,37.9,29.91,SSE,168,0.0,0.0,33,0.00,CLR,,0.00,WeatherDisplay:10.37,2013-05-12 14:09:00,
2013-05-12 07:19:00,70.3,36.5,29.91,SSE,168,0.0,3.0,29,0.00,CLR,,0.00,WeatherDisplay:10.37,2013-05-12 14:19:00,
2013-05-12 07:29:00,71.5,36.7,29.93,SSE,168,0.0,0.0,28,0.00,CLR,,0.00,WeatherDisplay:10.37,2013-05-12 14:29:00,
2013-05-12 07:39:00,72.5,37.5,29.93,SSE,168,0.0,0.0,28,0.00,CLR,,0.00,WeatherDisplay:10.37,2013-05-12 14:39:00,
2013-05-12 07:49:00,73.5,37.5,29.93,SSE,168,1.0,3.0,27,0.00,CLR,,0.00,WeatherDisplay:10.37,2013-05-12 14:49:00,
2013-05-12 07:59:00,74.3,37.2,29.92,SSE,168,0.0,3.0,26,0.00,CLR,,0.00,WeatherDisplay:10.37,2013-05-12 14:59:00,
2013-05-12 08:04:00,74.9,35.7,29.92,SSE,168,3.0,4.0,24,0.00,CLR,,0.00,WeatherDisplay:10.37,2013-05-12 15:04:00,
2013-05-12 08:09:00,75.4,36.1,29.92,SSE,168,3.0,4.0,24,0.00,CLR,,0.00,WeatherDisplay:10.37,2013-05-12 15:09:00,
2013-05-12 08:19:00,76.8,36.2,29.92,SSE,168,0.0,2.0,23,0.00,CLR,,0.00,WeatherDisplay:10.37,2013-05-12 15:19:00,
2013-05-12 08:29:00,78.3,35.1,29.93,SSE,168,0.0,0.0,21,0.00,CLR,,0.00,WeatherDisplay:10.37,2013-05-12 15:29:00,
2013-05-12 08:39:00,80.3,35.6,29.93,SSE,168,0.0,1.0,20,0.00,CLR,,0.00,WeatherDisplay:10.37,2013-05-12 15:39:00,
2013-05-12 08:49:00,81.0,36.2,29.93,SSE,168,0.0,1.0,20,0.00,CLR,,0.00,WeatherDisplay:10.37,2013-05-12 15:49:00,
2013-05-12 08:59:00,81.5,35.3,29.93,SSE,168,1.0,2.0,19,0.00,CLR,,0.00,WeatherDisplay:10.37,2013-05-12 15:59:00,
2013-05-12 09:04:00,81.8,35.5,29.92,SSE,168,0.0,1.0,19,0.00,CLR,,0.00,WeatherDisplay:10.37,2013-05-12 16:04:00,
2013-05-12 09:09:00,82.5,36.1,29.92,SSE,168,1.0,3.0,19,0.00,CLR,,0.00,WeatherDisplay:10.37,2013-05-12 16:09:00,
2013-05-12 09:19:00,83.8,35.8,29.92,SSE,168,0.0,0.0,18,0.00,CLR,,0.00,WeatherDisplay:10.37,2013-05-12 16:19:00,
2013-05-12 09:29:00,84.7,35.0,29.91,SSE,168,0.0,3.0,17,0.00,CLR,,0.00,WeatherDisplay:10.37,2013-05-12 16:29:00,
2013-05-12 09:39:00,84.7,36.5,29.91,SSE,168,0.0,1.0,18,0.00,CLR,,0.00,WeatherDisplay:10.37,2013-05-12 16:39:00,
2013-05-12 09:49:00,86.0,36.1,29.91,SSE,168,0.0,3.0,17,0.00,CLR,,0.00,WeatherDisplay:10.37,2013-05-12 16:49:00,
2013-05-12 09:59:00,86.7,35.1,29.91,SSE,168,0.0,4.0,16,0.00,CLR,,0.00,WeatherDisplay:10.37,2013-05-12 16:59:00,
2013-05-12 10:04:00,87.0,35.4,29.90,SSE,168,0.0,0.0,16,0.00,CLR,,0.00,WeatherDisplay:10.37,2013-05-12 17:04:00,
2013-05-12 10:09:00,87.8,34.4,29.90,SSE,168,2.0,5.0,15,0.00,CLR,,0.00,WeatherDisplay:10.37,2013-05-12 17:09:00,
2013-05-12 10:19:00,89.1,35.4,29.90,SSE,168,0.0,0.0,15,0.00,CLR,,0.00,WeatherDisplay:10.37,2013-05-12 17:19:00,
2013-05-12 10:29:00,89.9,36.1,29.90,SSE,168,0.0,3.0,15,0.00,CLR,,0.00,WeatherDisplay:10.37,2013-05-12 17:29:00,
2013-05-12 10:39:00,89.0,35.4,29.89,SSE,168,0.0,3.0,15,0.00,CLR,,0.00,WeatherDisplay:10.37,2013-05-12 17:39:00,
2013-05-12 10:49:00,89.0,33.6,29.89,SSE,168,1.0,4.0,14,0.00,CLR,,0.00,WeatherDisplay:10.37,2013-05-12 17:49:00,
2013-05-12 10:59:00,88.8,33.4,29.89,SSE,168,0.0,4.0,14,0.00,CLR,,0.00,WeatherDisplay:10.37,2013-05-12 17:59:00,
2013-05-12 11:04:00,89.9,34.3,29.89,SSE,168,1.0,3.0,14,0.00,CLR,,0.00,WeatherDisplay:10.37,2013-05-12 18:04:00,
2013-05-12 11:09:00,90.5,34.8,29.88,SSE,168,0.0,3.0,14,0.00,CLR,,0.00,WeatherDisplay:10.37,2013-05-12 18:09:00,
2013-05-12 11:19:00,92.1,34.2,29.88,SSE,164,3.0,4.0,13,0.00,CLR,,0.00,WeatherDisplay:10.37,2013-05-12 18:19:00,
2013-05-12 11:29:00,91.8,33.9,29.88,SSE,151,1.0,3.0,13,0.00,CLR,,0.00,WeatherDisplay:10.37,2013-05-12 18:29:00,
2013-05-12 11:39:00,90.8,33.2,29.88,South,169,0.0,4.0,13,0.00,CLR,,0.00,WeatherDisplay:10.37,2013-05-12 18:39:00,
2013-05-12 11:49:00,92.1,32.2,29.88,ESE,106,0.0,5.0,12,0.00,CLR,,0.00,WeatherDisplay:10.37,2013-05-12 18:49:00,
2013-05-12 11:59:00,92.1,32.2,29.87,ESE,106,0.0,4.0,12,0.00,CLR,,0.00,WeatherDisplay:10.37,2013-05-12 18:59:00,
2013-05-12 12:04:00,92.8,30.6,29.87,ESE,106,1.0,4.0,11,0.00,CLR,,0.00,WeatherDisplay:10.37,2013-05-12 19:04:00,
2013-05-12 12:09:00,94.2,31.7,29.87,ESE,106,1.0,3.0,11,0.00,CLR,,0.00,WeatherDisplay:10.37,2013-05-12 19:09:00,
2013-05-12 12:19:00,94.4,29.5,29.86,ESE,106,2.0,5.0,10,0.00,CLR,,0.00,WeatherDisplay:10.37,2013-05-12 19:19:00,
2013-05-12 12:29:00,95.2,27.5,29.87,ESE,104,2.0,4.0,9,0.00,CLR,,0.00,WeatherDisplay:10.37,2013-05-12 19:29:00,
2013-05-12 12:39:00,94.9,27.2,29.86,ENE,68,2.0,8.0,9,0.00,CLR,,0.00,WeatherDisplay:10.37,2013-05-12 19:39:00,
2013-05-12 12:49:00,93.7,26.3,29.87,NNE,20,5.0,10.0,9,0.00,CLR,,0.00,WeatherDisplay:10.37,2013-05-12 19:49:00,
2013-05-12 12:59:00,93.4,28.7,29.86,WNW,301,3.0,6.0,10,0.00,CLR,,0.00,WeatherDisplay:10.37,2013-05-12 19:59:00,
2013-05-12 13:04:00,94.2,26.7,29.86,WNW,302,3.0,7.0,9,0.00,CLR,,0.00,WeatherDisplay:10.37,2013-05-12 20:04:00,
2013-05-12 13:09:00,95.2,27.5,29.86,WNW,303,1.0,5.0,9,0.00,CLR,,0.00,WeatherDisplay:10.37,2013-05-12 20:09:00,
2013-05-12 13:19:00,94.9,29.8,29.85,NNW,342,3.0,7.0,10,0.00,CLR,,0.00,WeatherDisplay:10.37,2013-05-12 20:19:00,
2013-05-12 13:29:00,95.4,30.2,29.85,WNW,294,6.0,9.0,10,0.00,CLR,,0.00,WeatherDisplay:10.37,2013-05-12 20:29:00,
2013-05-12 13:39:00,95.4,27.6,29.85,West,279,2.0,6.0,9,0.00,CLR,,0.00,WeatherDisplay:10.37,2013-05-12 20:39:00,
2013-05-12 13:49:00,95.7,27.9,29.84,West,279,1.0,5.0,9,0.00,CLR,,0.00,WeatherDisplay:10.37,2013-05-12 20:49:00,
2013-05-12 13:59:00,96.1,28.1,29.84,West,279,1.0,6.0,9,0.00,CLR,,0.00,WeatherDisplay:10.37,2013-05-12 20:59:00,
2013-05-12 14:04:00,95.9,28.0,29.83,WSW,242,8.0,13.0,9,0.00,CLR,,0.00,WeatherDisplay:10.37,2013-05-12 21:04:00,
2013-05-12 14:09:00,94.9,27.2,29.83,SSW,210,2.0,7.0,9,0.00,CLR,,0.00,WeatherDisplay:10.37,2013-05-12 21:09:00,
2013-05-12 14:19:00,95.1,27.4,29.83,SW,218,6.0,12.0,9,0.00,CLR,,0.00,WeatherDisplay:10.37,2013-05-12 21:19:00,
2013-05-12 14:29:00,95.1,30.0,29.83,SW,232,5.0,8.0,10,0.00,CLR,,0.00,WeatherDisplay:10.37,2013-05-12 21:29:00,
2013-05-12 14:39:00,96.0,28.0,29.82,SSW,198,2.0,12.0,9,0.00,CLR,,0.00,WeatherDisplay:10.37,2013-05-12 21:39:00,
2013-05-12 14:49:00,96.8,28.7,29.81,SSW,202,7.0,12.0,9,0.00,CLR,,0.00,WeatherDisplay:10.37,2013-05-12 21:49:00,
2013-05-12 14:59:00,95.4,27.6,29.81,SSW,211,1.0,5.0,9,0.00,CLR,,0.00,WeatherDisplay:10.37,2013-05-12 21:59:00,
2013-05-12 15:04:00,96.1,28.1,29.81,SSW,201,2.0,10.0,9,0.00,CLR,,0.00,WeatherDisplay:10.37,2013-05-12 22:04:00,
2013-05-12 15:09:00,96.6,28.5,29.80,SSW,196,6.0,9.0,9,0.00,CLR,,0.00,WeatherDisplay:10.37,2013-05-12 22:09:00,
2013-05-12 15:19:00,95.4,27.6,29.80,WSW,250,3.0,12.0,9,0.00,CLR,,0.00,WeatherDisplay:10.37,2013-05-12 22:19:00,
2013-05-12 15:29:00,96.6,28.5,29.80,ENE,69,9.0,15.0,9,0.00,CLR,,0.00,WeatherDisplay:10.37,2013-05-12 22:29:00,
2013-05-12 15:39:00,95.1,27.4,29.80,East,82,1.0,16.0,9,0.00,CLR,,0.00,WeatherDisplay:10.37,2013-05-12 22:39:00,
2013-05-12 15:49:00,96.6,28.5,29.79,ENE,70,0.0,7.0,9,0.00,CLR,,0.00,WeatherDisplay:10.37,2013-05-12 22:49:00,
2013-05-12 15:59:00,97.8,26.5,29.79,East,91,6.0,10.0,8,0.00,CLR,,0.00,WeatherDisplay:10.37,2013-05-12 22:59:00,
2013-05-12 16:04:00,98.0,29.6,29.78,East,98,2.0,9.0,9,0.00,CLR,,0.00,WeatherDisplay:10.37,2013-05-12 23:04:00,
2013-05-12 16:09:00,97.5,29.2,29.78,East,86,5.0,8.0,9,0.00,CLR,,0.00,WeatherDisplay:10.37,2013-05-12 23:09:00,
2013-05-12 16:19:00,97.1,28.9,29.78,East,92,6.0,12.0,9,0.00,CLR,,0.00,WeatherDisplay:10.37,2013-05-12 23:19:00,
2013-05-12 16:29:00,97.3,29.1,29.78,ENE,74,0.0,3.0,9,0.00,CLR,,0.00,WeatherDisplay:10.37,2013-05-12 23:29:00,
2013-05-12 16:39:00,97.1,26.0,29.78,South,181,2.0,7.0,8,0.00,CLR,,0.00,WeatherDisplay:10.37,2013-05-12 23:39:00,
2013-05-12 16:49:00,96.3,28.3,29.78,South,190,5.0,12.0,9,0.00,CLR,,0.00,WeatherDisplay:10.37,2013-05-12 23:49:00,
2013-05-12 16:59:00,96.7,25.7,29.77,SSW,194,3.0,5.0,8,0.00,CLR,,0.00,WeatherDisplay:10.37,2013-05-12 23:59:00,
2013-05-12 17:04:00,96.6,25.7,29.77,SSW,194,2.0,5.0,8,0.00,CLR,,0.00,WeatherDisplay:10.37,2013-05-13 00:04:00,
2013-05-12 17:09:00,96.0,25.2,29.77,SW,234,5.0,10.0,8,0.00,CLR,,0.00,WeatherDisplay:10.37,2013-05-13 00:09:00,
2013-05-12 17:19:00,95.9,28.0,29.76,WNW,296,0.0,9.0,9,0.00,CLR,,0.00,WeatherDisplay:10.37,2013-05-13 00:19:00,
2013-05-12 17:29:00,96.9,28.8,29.76,NW,304,1.0,4.0,9,0.00,CLR,,0.00,WeatherDisplay:10.37,2013-05-13 00:29:00,
2013-05-12 17:39:00,96.6,25.7,29.76,NW,304,0.0,4.0,8,0.00,CLR,,0.00,WeatherDisplay:10.37,2013-05-13 00:39:00,
2013-05-12 17:49:00,96.3,28.3,29.75,NW,304,0.0,2.0,9,0.00,CLR,,0.00,WeatherDisplay:10.37,2013-05-13 00:49:00,
2013-05-12 17:59:00,95.1,27.4,29.76,NW,310,6.0,14.0,9,0.00,CLR,,0.00,WeatherDisplay:10.37,2013-05-13 00:59:00,
2013-05-12 18:09:00,95.9,25.1,29.75,WNW,299,3.0,6.0,8,0.00,CLR,,0.00,WeatherDisplay:10.37,2013-05-13 01:09:00,
2013-05-12 18:19:00,95.9,25.1,29.75,West,277,0.0,3.0,8,0.00,CLR,,0.00,WeatherDisplay:10.37,2013-05-13 01:19:00,
2013-05-12 18:29:00,95.4,24.8,29.73,West,274,5.0,6.0,8,0.00,CLR,,0.00,WeatherDisplay:10.37,2013-05-13 01:29:00,
2013-05-12 18:39:00,94.9,27.2,29.73,West,260,0.0,10.0,9,0.00,CLR,,0.00,WeatherDisplay:10.37,2013-05-13 01:39:00,
2013-05-12 18:49:00,94.9,27.2,29.73,SW,231,3.0,7.0,9,0.00,CLR,,0.00,WeatherDisplay:10.37,2013-05-13 01:49:00,
2013-05-12 18:59:00,93.8,29.0,29.73,SW,222,6.0,10.0,10,0.00,CLR,,0.00,WeatherDisplay:10.37,2013-05-13 01:59:00,
2013-05-12 19:04:00,93.4,28.7,29.73,SW,218,7.0,12.0,10,0.00,CLR,,0.00,WeatherDisplay:10.37,2013-05-13 02:04:00,
2013-05-12 19:09:00,92.9,32.8,29.73,SSW,213,7.0,12.0,12,0.00,CLR,,0.00,WeatherDisplay:10.37,2013-05-13 02:09:00,
2013-05-12 19:19:00,92.2,36.1,29.74,SSW,208,3.0,12.0,14,0.00,CLR,,0.00,WeatherDisplay:10.37,2013-05-13 02:19:00,
2013-05-12 19:29:00,91.1,37.0,29.72,SW,220,12.0,15.0,15,0.00,CLR,,0.00,WeatherDisplay:10.37,2013-05-13 02:29:00,
2013-05-12 19:39:00,89.9,36.1,29.73,SW,234,10.0,12.0,15,0.00,CLR,,0.00,WeatherDisplay:10.37,2013-05-13 02:39:00,
2013-05-12 19:49:00,89.1,37.1,29.73,SW,236,6.0,12.0,16,0.00,CLR,,0.00,WeatherDisplay:10.37,2013-05-13 02:49:00,
2013-05-12 19:59:00,88.3,36.4,29.74,WSW,238,5.0,10.0,16,0.00,CLR,,0.00,WeatherDisplay:10.37,2013-05-13 02:59:00,
2013-05-12 20:04:00,88.0,36.2,29.74,WSW,238,3.0,10.0,16,0.00,CLR,,0.00,WeatherDisplay:10.37,2013-05-13 03:04:00,
2013-05-12 20:09:00,87.8,36.0,29.74,WSW,238,3.0,6.0,16,0.00,CLR,,0.00,WeatherDisplay:10.37,2013-05-13 03:09:00,
2013-05-12 20:19:00,87.0,36.9,29.74,WSW,238,6.0,7.0,17,0.00,CLR,,0.00,WeatherDisplay:10.37,2013-05-13 03:19:00,
2013-05-12 20:29:00,87.2,37.1,29.73,WSW,246,5.0,7.0,17,0.00,CLR,,0.00,WeatherDisplay:10.37,2013-05-13 03:29:00,
2013-05-12 20:39:00,87.0,36.9,29.73,WSW,248,6.0,9.0,17,0.00,CLR,,0.00,WeatherDisplay:10.37,2013-05-13 03:39:00,
2013-05-12 20:49:00,85.9,36.0,29.73,WSW,249,5.0,6.0,17,0.00,CLR,,0.00,WeatherDisplay:10.37,2013-05-13 03:49:00,
2013-05-12 20:59:00,86.3,36.3,29.74,WSW,252,6.0,10.0,17,0.00,CLR,,0.00,WeatherDisplay:10.37,2013-05-13 03:59:00,
2013-05-12 21:04:00,85.9,36.0,29.74,WSW,253,6.0,10.0,17,0.00,CLR,,0.00,WeatherDisplay:10.37,2013-05-13 04:04:00,
2013-05-12 21:09:00,85.9,36.0,29.74,WSW,253,3.0,9.0,17,0.00,CLR,,0.00,WeatherDisplay:10.37,2013-05-13 04:09:00,
2013-05-12 21:14:00,85.3,35.6,29.75,WSW,253,3.0,7.0,17,0.00,CLR,,0.00,WeatherDisplay:10.37,2013-05-13 04:14:00,
2013-05-12 21:19:00,84.1,36.0,29.75,WSW,253,5.0,6.0,18,0.00,CLR,,0.00,WeatherDisplay:10.37,2013-05-13 04:19:00,
2013-05-12 21:24:00,84.1,36.0,29.74,WSW,253,6.0,9.0,18,0.00,CLR,,0.00,WeatherDisplay:10.37,2013-05-13 04:24:00,
2013-05-12 21:29:00,84.7,36.5,29.74,WSW,253,5.0,8.0,18,0.00,CLR,,0.00,WeatherDisplay:10.37,2013-05-13 04:29:00,
2013-05-12 21:39:00,83.3,36.7,29.74,WSW,253,3.0,5.0,19,0.00,CLR,,0.00,WeatherDisplay:10.37,2013-05-13 04:39:00,
2013-05-12 21:49:00,81.9,35.6,29.75,WSW,253,3.0,6.0,19,0.00,CLR,,0.00,WeatherDisplay:10.37,2013-05-13 04:49:00,
2013-05-12 21:59:00,83.2,36.7,29.75,WSW,253,2.0,7.0,19,0.00,CLR,,0.00,WeatherDisplay:10.37,2013-05-13 04:59:00,
2013-05-12 22:04:00,82.6,36.1,29.75,WSW,253,3.0,6.0,19,0.00,CLR,,0.00,WeatherDisplay:10.37,2013-05-13 05:04:00,
2013-05-12 22:09:00,83.3,36.7,29.75,WSW,253,5.0,7.0,19,0.00,CLR,,0.00,WeatherDisplay:10.37,2013-05-13 05:09:00,
2013-05-12 22:19:00,84.8,36.5,29.75,WSW,256,7.0,12.0,18,0.00,CLR,,0.00,WeatherDisplay:10.37,2013-05-13 05:19:00,
2013-05-12 22:29:00,83.8,37.1,29.74,West,263,2.0,4.0,19,0.00,CLR,,0.00,WeatherDisplay:10.37,2013-05-13 05:29:00,
2013-05-12 22:39:00,83.1,36.5,29.75,West,263,1.0,3.0,19,0.00,CLR,,0.00,WeatherDisplay:10.37,2013-05-13 05:39:00,
2013-05-12 22:49:00,82.4,37.3,29.75,West,263,0.0,0.0,20,0.00,CLR,,0.00,WeatherDisplay:10.37,2013-05-13 05:49:00,
2013-05-12 22:59:00,81.1,37.5,29.76,West,263,1.0,2.0,21,0.00,CLR,,0.00,WeatherDisplay:10.37,2013-05-13 05:59:00,
2013-05-12 23:04:00,80.1,36.6,29.75,West,263,2.0,3.0,21,0.00,CLR,,0.00,WeatherDisplay:10.37,2013-05-13 06:04:00,
2013-05-12 23:09:00,79.3,37.1,29.76,West,263,2.0,4.0,22,0.00,CLR,,0.00,WeatherDisplay:10.37,2013-05-13 06:09:00,
2013-05-12 23:19:00,78.5,36.5,29.76,West,263,0.0,4.0,22,0.00,CLR,,0.00,WeatherDisplay:10.37,2013-05-13 06:19:00,
2013-05-12 23:29:00,78.3,36.3,29.76,West,263,0.0,2.0,22,0.00,CLR,,0.00,WeatherDisplay:10.37,2013-05-13 06:29:00,
2013-05-12 23:39:00,78.1,36.1,29.76,West,263,0.0,0.0,22,0.00,CLR,,0.00,WeatherDisplay:10.37,2013-05-13 06:39:00,
2013-05-12 23:49:00,77.5,36.7,29.76,West,263,0.0,0.0,23,0.00,CLR,,0.00,WeatherDisplay:10.37,2013-05-13 06:49:00,
2013-05-12 23:59:00,76.8,37.3,29.76,West,263,0.0,0.0,24,0.00,CLR,,0.00,WeatherDisplay:10.37,2013-05-13 06:59:00,